sensor_id;sensor_type;location;lat;lon;timestamp;P1;durP1;ratioP1;P2;durP2;ratioP2
1106;SDS011;540;49.448;8.612;2023-11-21T00:00:02;6.57;;;2.45;;
1106;SDS011;540;49.448;8.612;2023-11-21T00:02:36;9.05;;;3.30;;
1106;SDS011;540;49.448;8.612;2023-11-21T00:05:04;7.47;;;2.50;;
1106;SDS011;540;49.448;8.612;2023-11-21T00:07:35;11.02;;;2.42;;
1106;SDS011;540;49.448;8.612;2023-11-21T00:10:03;8.52;;;2.35;;
1106;SDS011;540;49.448;8.612;2023-11-21T00:12:34;7.22;;;2.70;;
1106;SDS011;540;49.448;8.612;2023-11-21T00:15:02;7.55;;;2.60;;
1106;SDS011;540;49.448;8.612;2023-11-21T00:17:31;8.45;;;2.90;;
1106;SDS011;540;49.448;8.612;2023-11-21T00:19:59;11.85;;;2.55;;
1106;SDS011;540;49.448;8.612;2023-11-21T00:22:32;6.43;;;2.70;;
1106;SDS011;540;49.448;8.612;2023-11-21T00:25:02;5.80;;;2.42;;
1106;SDS011;540;49.448;8.612;2023-11-21T00:27:30;5.50;;;2.42;;
1106;SDS011;540;49.448;8.612;2023-11-21T00:29:58;8.98;;;2.70;;
1106;SDS011;540;49.448;8.612;2023-11-21T00:32:26;9.50;;;2.42;;
1106;SDS011;540;49.448;8.612;2023-11-21T00:34:54;7.07;;;2.90;;
1106;SDS011;540;49.448;8.612;2023-11-21T00:37:22;5.65;;;3.10;;
1106;SDS011;540;49.448;8.612;2023-11-21T00:39:50;6.45;;;2.60;;
1106;SDS011;540;49.448;8.612;2023-11-21T00:42:19;8.70;;;2.70;;
1106;SDS011;540;49.448;8.612;2023-11-21T00:44:47;7.25;;;2.92;;
1106;SDS011;540;49.448;8.612;2023-11-21T00:47:15;7.88;;;3.03;;
1106;SDS011;540;49.448;8.612;2023-11-21T00:49:43;8.85;;;2.88;;
1106;SDS011;540;49.448;8.612;2023-11-21T00:52:11;9.05;;;2.60;;
1106;SDS011;540;49.448;8.612;2023-11-21T00:54:39;7.45;;;2.67;;
1106;SDS011;540;49.448;8.612;2023-11-21T00:57:07;9.65;;;3.05;;
1106;SDS011;540;49.448;8.612;2023-11-21T00:59:36;10.55;;;2.70;;
1106;SDS011;540;49.448;8.612;2023-11-21T01:02:04;10.10;;;3.15;;
1106;SDS011;540;49.448;8.612;2023-11-21T01:04:36;9.13;;;3.20;;
1106;SDS011;540;49.448;8.612;2023-11-21T01:07:05;6.78;;;2.45;;
1106;SDS011;540;49.448;8.612;2023-11-21T01:09:33;8.52;;;2.92;;
1106;SDS011;540;49.448;8.612;2023-11-21T01:12:00;9.30;;;3.08;;
1106;SDS011;540;49.448;8.612;2023-11-21T01:14:28;7.85;;;3.10;;
1106;SDS011;540;49.448;8.612;2023-11-21T01:16:57;5.00;;;2.67;;
1106;SDS011;540;49.448;8.612;2023-11-21T01:19:25;8.00;;;2.85;;
1106;SDS011;540;49.448;8.612;2023-11-21T01:21:55;6.68;;;2.60;;
1106;SDS011;540;49.448;8.612;2023-11-21T01:24:24;11.25;;;3.80;;
1106;SDS011;540;49.448;8.612;2023-11-21T01:26:52;8.30;;;3.05;;
1106;SDS011;540;49.448;8.612;2023-11-21T01:29:19;4.55;;;2.80;;
1106;SDS011;540;49.448;8.612;2023-11-21T01:31:47;7.45;;;2.80;;
1106;SDS011;540;49.448;8.612;2023-11-21T01:34:16;11.35;;;3.58;;
1106;SDS011;540;49.448;8.612;2023-11-21T01:36:45;11.18;;;3.80;;
1106;SDS011;540;49.448;8.612;2023-11-21T01:39:13;9.80;;;3.03;;
1106;SDS011;540;49.448;8.612;2023-11-21T01:41:42;11.38;;;3.58;;
1106;SDS011;540;49.448;8.612;2023-11-21T01:44:11;6.40;;;2.97;;
1106;SDS011;540;49.448;8.612;2023-11-21T01:46:39;10.90;;;3.88;;
1106;SDS011;540;49.448;8.612;2023-11-21T01:49:07;10.20;;;3.53;;
1106;SDS011;540;49.448;8.612;2023-11-21T01:51:40;8.48;;;2.75;;
1106;SDS011;540;49.448;8.612;2023-11-21T01:54:09;9.75;;;3.10;;
1106;SDS011;540;49.448;8.612;2023-11-21T01:56:43;8.93;;;3.25;;
1106;SDS011;540;49.448;8.612;2023-11-21T01:59:12;9.55;;;3.60;;
1106;SDS011;540;49.448;8.612;2023-11-21T02:01:45;7.20;;;2.78;;
1106;SDS011;540;49.448;8.612;2023-11-21T02:04:13;13.65;;;3.65;;
1106;SDS011;540;49.448;8.612;2023-11-21T02:06:43;7.25;;;2.53;;
1106;SDS011;540;49.448;8.612;2023-11-21T02:09:11;11.25;;;2.95;;
1106;SDS011;540;49.448;8.612;2023-11-21T02:11:41;9.05;;;2.60;;
1106;SDS011;540;49.448;8.612;2023-11-21T02:14:10;6.70;;;2.70;;
1106;SDS011;540;49.448;8.612;2023-11-21T02:16:39;7.85;;;2.80;;
1106;SDS011;540;49.448;8.612;2023-11-21T02:19:07;5.95;;;2.65;;
1106;SDS011;540;49.448;8.612;2023-11-21T02:21:40;12.25;;;2.97;;
1106;SDS011;540;49.448;8.612;2023-11-21T02:24:12;6.80;;;2.83;;
1106;SDS011;540;49.448;8.612;2023-11-21T02:26:40;8.07;;;2.80;;
1106;SDS011;540;49.448;8.612;2023-11-21T02:29:08;10.18;;;3.72;;
1106;SDS011;540;49.448;8.612;2023-11-21T02:31:38;7.63;;;3.13;;
1106;SDS011;540;49.448;8.612;2023-11-21T02:36:42;10.30;;;3.35;;
1106;SDS011;540;49.448;8.612;2023-11-21T02:39:10;8.32;;;3.10;;
1106;SDS011;540;49.448;8.612;2023-11-21T02:41:40;8.82;;;3.40;;
1106;SDS011;540;49.448;8.612;2023-11-21T02:44:08;11.55;;;4.40;;
1106;SDS011;540;49.448;8.612;2023-11-21T02:46:36;13.32;;;3.55;;
1106;SDS011;540;49.448;8.612;2023-11-21T02:49:05;6.32;;;3.28;;
1106;SDS011;540;49.448;8.612;2023-11-21T02:51:36;6.75;;;3.28;;
1106;SDS011;540;49.448;8.612;2023-11-21T02:54:05;7.25;;;3.38;;
1106;SDS011;540;49.448;8.612;2023-11-21T02:56:36;7.90;;;3.10;;
1106;SDS011;540;49.448;8.612;2023-11-21T02:59:06;7.45;;;3.33;;
1106;SDS011;540;49.448;8.612;2023-11-21T03:01:34;7.78;;;3.70;;
1106;SDS011;540;49.448;8.612;2023-11-21T03:04:01;7.55;;;3.78;;
1106;SDS011;540;49.448;8.612;2023-11-21T03:06:30;7.22;;;3.38;;
1106;SDS011;540;49.448;8.612;2023-11-21T03:08:57;6.88;;;3.60;;
1106;SDS011;540;49.448;8.612;2023-11-21T03:11:25;9.25;;;4.10;;
1106;SDS011;540;49.448;8.612;2023-11-21T03:13:54;6.55;;;3.88;;
1106;SDS011;540;49.448;8.612;2023-11-21T03:16:22;8.90;;;3.70;;
1106;SDS011;540;49.448;8.612;2023-11-21T03:18:50;8.98;;;3.95;;
1106;SDS011;540;49.448;8.612;2023-11-21T03:21:18;6.57;;;4.05;;
1106;SDS011;540;49.448;8.612;2023-11-21T03:23:46;8.13;;;3.60;;
1106;SDS011;540;49.448;8.612;2023-11-21T03:26:14;5.57;;;3.60;;
1106;SDS011;540;49.448;8.612;2023-11-21T03:28:42;7.05;;;3.95;;
1106;SDS011;540;49.448;8.612;2023-11-21T03:31:12;11.38;;;3.90;;
1106;SDS011;540;49.448;8.612;2023-11-21T03:33:39;8.15;;;3.40;;
1106;SDS011;540;49.448;8.612;2023-11-21T03:36:08;6.00;;;3.42;;
1106;SDS011;540;49.448;8.612;2023-11-21T03:38:36;7.63;;;3.70;;
1106;SDS011;540;49.448;8.612;2023-11-21T03:41:04;9.38;;;3.03;;
1106;SDS011;540;49.448;8.612;2023-11-21T03:43:32;8.18;;;3.38;;
1106;SDS011;540;49.448;8.612;2023-11-21T03:46:00;7.57;;;4.03;;
1106;SDS011;540;49.448;8.612;2023-11-21T03:48:30;8.50;;;3.85;;
1106;SDS011;540;49.448;8.612;2023-11-21T03:50:59;5.03;;;3.08;;
1106;SDS011;540;49.448;8.612;2023-11-21T03:53:27;4.82;;;3.33;;
1106;SDS011;540;49.448;8.612;2023-11-21T03:55:55;7.28;;;3.30;;
1106;SDS011;540;49.448;8.612;2023-11-21T03:58:22;6.30;;;3.00;;
1106;SDS011;540;49.448;8.612;2023-11-21T04:00:50;7.63;;;2.90;;
1106;SDS011;540;49.448;8.612;2023-11-21T04:03:18;7.55;;;2.78;;
1106;SDS011;540;49.448;8.612;2023-11-21T04:05:48;8.73;;;3.38;;
1106;SDS011;540;49.448;8.612;2023-11-21T04:08:15;6.28;;;2.80;;
1106;SDS011;540;49.448;8.612;2023-11-21T04:10:44;5.78;;;2.97;;
1106;SDS011;540;49.448;8.612;2023-11-21T04:13:12;6.05;;;3.20;;
1106;SDS011;540;49.448;8.612;2023-11-21T04:15:40;6.50;;;3.30;;
1106;SDS011;540;49.448;8.612;2023-11-21T04:18:07;5.88;;;3.55;;
1106;SDS011;540;49.448;8.612;2023-11-21T04:20:35;8.43;;;3.85;;
1106;SDS011;540;49.448;8.612;2023-11-21T04:23:04;7.85;;;4.22;;
1106;SDS011;540;49.448;8.612;2023-11-21T04:25:32;6.97;;;3.25;;
1106;SDS011;540;49.448;8.612;2023-11-21T04:28:01;7.80;;;3.38;;
1106;SDS011;540;49.448;8.612;2023-11-21T04:30:28;7.95;;;3.53;;
1106;SDS011;540;49.448;8.612;2023-11-21T04:32:59;7.25;;;3.83;;
1106;SDS011;540;49.448;8.612;2023-11-21T04:35:27;5.45;;;2.70;;
1106;SDS011;540;49.448;8.612;2023-11-21T04:37:55;5.63;;;3.08;;
1106;SDS011;540;49.448;8.612;2023-11-21T04:40:24;8.55;;;3.83;;
1106;SDS011;540;49.448;8.612;2023-11-21T04:42:53;5.82;;;3.58;;
1106;SDS011;540;49.448;8.612;2023-11-21T04:45:21;7.57;;;3.83;;
1106;SDS011;540;49.448;8.612;2023-11-21T04:47:49;7.20;;;3.95;;
1106;SDS011;540;49.448;8.612;2023-11-21T04:50:18;7.10;;;3.40;;
1106;SDS011;540;49.448;8.612;2023-11-21T04:52:46;7.45;;;3.67;;
1106;SDS011;540;49.448;8.612;2023-11-21T04:55:14;4.72;;;3.25;;
1106;SDS011;540;49.448;8.612;2023-11-21T04:57:43;5.68;;;3.30;;
1106;SDS011;540;49.448;8.612;2023-11-21T05:00:13;7.00;;;3.83;;
1106;SDS011;540;49.448;8.612;2023-11-21T05:02:42;7.10;;;3.90;;
1106;SDS011;540;49.448;8.612;2023-11-21T05:05:11;7.82;;;4.03;;
1106;SDS011;540;49.448;8.612;2023-11-21T05:07:39;6.82;;;4.03;;
1106;SDS011;540;49.448;8.612;2023-11-21T05:10:08;6.53;;;4.05;;
1106;SDS011;540;49.448;8.612;2023-11-21T05:12:39;6.25;;;3.72;;
1106;SDS011;540;49.448;8.612;2023-11-21T05:15:09;6.05;;;3.92;;
1106;SDS011;540;49.448;8.612;2023-11-21T05:17:40;11.32;;;4.70;;
1106;SDS011;540;49.448;8.612;2023-11-21T05:20:10;10.02;;;5.22;;
1106;SDS011;540;49.448;8.612;2023-11-21T05:22:40;9.20;;;4.30;;
1106;SDS011;540;49.448;8.612;2023-11-21T05:25:08;9.23;;;4.85;;
1106;SDS011;540;49.448;8.612;2023-11-21T05:27:37;6.25;;;4.32;;
1106;SDS011;540;49.448;8.612;2023-11-21T05:30:06;6.10;;;4.55;;
1106;SDS011;540;49.448;8.612;2023-11-21T05:32:37;6.68;;;4.57;;
1106;SDS011;540;49.448;8.612;2023-11-21T05:35:05;6.13;;;4.03;;
1106;SDS011;540;49.448;8.612;2023-11-21T05:37:36;7.85;;;4.97;;
1106;SDS011;540;49.448;8.612;2023-11-21T05:40:05;7.80;;;4.80;;
1106;SDS011;540;49.448;8.612;2023-11-21T05:42:34;7.40;;;4.43;;
1106;SDS011;540;49.448;8.612;2023-11-21T05:45:02;6.93;;;5.00;;
1106;SDS011;540;49.448;8.612;2023-11-21T05:47:38;8.93;;;5.40;;
1106;SDS011;540;49.448;8.612;2023-11-21T05:50:08;6.13;;;4.70;;
1106;SDS011;540;49.448;8.612;2023-11-21T05:52:41;8.95;;;5.10;;
1106;SDS011;540;49.448;8.612;2023-11-21T05:55:10;6.82;;;5.30;;
1106;SDS011;540;49.448;8.612;2023-11-21T05:57:40;10.40;;;5.32;;
1106;SDS011;540;49.448;8.612;2023-11-21T06:00:09;5.70;;;3.97;;
1106;SDS011;540;49.448;8.612;2023-11-21T06:02:43;7.70;;;4.53;;
1106;SDS011;540;49.448;8.612;2023-11-21T06:05:11;6.50;;;4.60;;
1106;SDS011;540;49.448;8.612;2023-11-21T06:07:39;7.03;;;4.55;;
1106;SDS011;540;49.448;8.612;2023-11-21T06:10:08;7.13;;;4.30;;
1106;SDS011;540;49.448;8.612;2023-11-21T06:12:37;5.93;;;4.60;;
1106;SDS011;540;49.448;8.612;2023-11-21T06:15:06;9.60;;;5.60;;
1106;SDS011;540;49.448;8.612;2023-11-21T06:17:36;6.35;;;4.78;;
1106;SDS011;540;49.448;8.612;2023-11-21T06:20:06;8.80;;;4.78;;
1106;SDS011;540;49.448;8.612;2023-11-21T06:22:36;6.60;;;4.85;;
1106;SDS011;540;49.448;8.612;2023-11-21T06:25:04;6.03;;;4.88;;
1106;SDS011;540;49.448;8.612;2023-11-21T06:27:34;7.30;;;5.93;;
1106;SDS011;540;49.448;8.612;2023-11-21T06:30:05;13.40;;;6.65;;
1106;SDS011;540;49.448;8.612;2023-11-21T06:32:36;12.95;;;9.32;;
1106;SDS011;540;49.448;8.612;2023-11-21T06:35:07;13.52;;;9.40;;
1106;SDS011;540;49.448;8.612;2023-11-21T06:37:36;11.93;;;10.70;;
1106;SDS011;540;49.448;8.612;2023-11-21T06:40:05;13.20;;;10.70;;
1106;SDS011;540;49.448;8.612;2023-11-21T06:42:35;13.93;;;9.05;;
1106;SDS011;540;49.448;8.612;2023-11-21T06:45:04;11.05;;;8.40;;
1106;SDS011;540;49.448;8.612;2023-11-21T06:47:33;11.43;;;8.70;;
1106;SDS011;540;49.448;8.612;2023-11-21T06:50:01;14.63;;;8.93;;
1106;SDS011;540;49.448;8.612;2023-11-21T06:52:30;10.82;;;7.97;;
1106;SDS011;540;49.448;8.612;2023-11-21T06:54:58;12.27;;;8.43;;
1106;SDS011;540;49.448;8.612;2023-11-21T06:57:26;16.42;;;12.70;;
1106;SDS011;540;49.448;8.612;2023-11-21T06:59:53;14.70;;;11.30;;
1106;SDS011;540;49.448;8.612;2023-11-21T07:02:23;16.38;;;13.07;;
1106;SDS011;540;49.448;8.612;2023-11-21T07:04:51;16.73;;;12.93;;
1106;SDS011;540;49.448;8.612;2023-11-21T07:07:19;16.83;;;13.18;;
1106;SDS011;540;49.448;8.612;2023-11-21T07:09:48;18.23;;;12.35;;
1106;SDS011;540;49.448;8.612;2023-11-21T07:12:18;14.23;;;11.32;;
1106;SDS011;540;49.448;8.612;2023-11-21T07:14:46;13.48;;;11.43;;
1106;SDS011;540;49.448;8.612;2023-11-21T07:17:13;17.38;;;12.38;;
1106;SDS011;540;49.448;8.612;2023-11-21T07:19:43;16.55;;;12.55;;
1106;SDS011;540;49.448;8.612;2023-11-21T07:22:11;18.65;;;11.65;;
1106;SDS011;540;49.448;8.612;2023-11-21T07:24:40;19.75;;;12.05;;
1106;SDS011;540;49.448;8.612;2023-11-21T07:27:09;17.52;;;12.25;;
1106;SDS011;540;49.448;8.612;2023-11-21T07:29:37;16.98;;;12.25;;
1106;SDS011;540;49.448;8.612;2023-11-21T07:32:06;21.45;;;12.63;;
1106;SDS011;540;49.448;8.612;2023-11-21T07:34:35;19.25;;;12.88;;
1106;SDS011;540;49.448;8.612;2023-11-21T07:37:03;15.25;;;10.95;;
1106;SDS011;540;49.448;8.612;2023-11-21T07:39:31;20.98;;;11.85;;
1106;SDS011;540;49.448;8.612;2023-11-21T07:41:59;15.23;;;11.80;;
1106;SDS011;540;49.448;8.612;2023-11-21T07:44:28;14.80;;;11.85;;
1106;SDS011;540;49.448;8.612;2023-11-21T07:46:56;17.30;;;13.02;;
1106;SDS011;540;49.448;8.612;2023-11-21T07:49:24;21.63;;;12.93;;
1106;SDS011;540;49.448;8.612;2023-11-21T07:51:53;18.42;;;12.50;;
1106;SDS011;540;49.448;8.612;2023-11-21T07:54:20;18.20;;;12.40;;
1106;SDS011;540;49.448;8.612;2023-11-21T07:56:48;14.75;;;11.98;;
1106;SDS011;540;49.448;8.612;2023-11-21T07:59:16;16.35;;;12.48;;
1106;SDS011;540;49.448;8.612;2023-11-21T08:01:45;16.48;;;11.98;;
1106;SDS011;540;49.448;8.612;2023-11-21T08:04:13;12.77;;;9.25;;
1106;SDS011;540;49.448;8.612;2023-11-21T08:06:42;12.23;;;10.00;;
1106;SDS011;540;49.448;8.612;2023-11-21T08:09:09;14.52;;;9.93;;
1106;SDS011;540;49.448;8.612;2023-11-21T08:11:38;14.13;;;9.88;;
1106;SDS011;540;49.448;8.612;2023-11-21T08:14:06;11.40;;;8.95;;
1106;SDS011;540;49.448;8.612;2023-11-21T08:16:34;12.13;;;8.23;;
1106;SDS011;540;49.448;8.612;2023-11-21T08:19:03;9.48;;;8.15;;
1106;SDS011;540;49.448;8.612;2023-11-21T08:21:32;11.82;;;8.80;;
1106;SDS011;540;49.448;8.612;2023-11-21T08:24:00;11.60;;;9.10;;
1106;SDS011;540;49.448;8.612;2023-11-21T08:26:30;11.50;;;8.25;;
1106;SDS011;540;49.448;8.612;2023-11-21T08:28:58;9.63;;;8.23;;
1106;SDS011;540;49.448;8.612;2023-11-21T08:31:27;10.75;;;8.13;;
1106;SDS011;540;49.448;8.612;2023-11-21T08:33:55;9.57;;;8.10;;
1106;SDS011;540;49.448;8.612;2023-11-21T08:36:25;8.57;;;7.45;;
1106;SDS011;540;49.448;8.612;2023-11-21T08:38:53;8.30;;;7.45;;
1106;SDS011;540;49.448;8.612;2023-11-21T08:41:21;8.60;;;7.28;;
1106;SDS011;540;49.448;8.612;2023-11-21T08:43:49;9.00;;;7.72;;
1106;SDS011;540;49.448;8.612;2023-11-21T08:46:18;8.93;;;7.10;;
1106;SDS011;540;49.448;8.612;2023-11-21T08:48:47;8.52;;;7.53;;
1106;SDS011;540;49.448;8.612;2023-11-21T08:51:15;11.30;;;8.05;;
1106;SDS011;540;49.448;8.612;2023-11-21T08:53:44;8.05;;;6.97;;
1106;SDS011;540;49.448;8.612;2023-11-21T08:56:13;8.75;;;7.47;;
1106;SDS011;540;49.448;8.612;2023-11-21T08:58:41;7.93;;;6.90;;
1106;SDS011;540;49.448;8.612;2023-11-21T09:01:09;7.50;;;6.03;;
1106;SDS011;540;49.448;8.612;2023-11-21T09:03:39;7.30;;;5.50;;
1106;SDS011;540;49.448;8.612;2023-11-21T09:06:08;5.68;;;5.07;;
1106;SDS011;540;49.448;8.612;2023-11-21T09:08:37;6.03;;;5.43;;
1106;SDS011;540;49.448;8.612;2023-11-21T09:11:07;7.30;;;5.68;;
1106;SDS011;540;49.448;8.612;2023-11-21T09:13:36;5.97;;;5.00;;
1106;SDS011;540;49.448;8.612;2023-11-21T09:16:05;5.70;;;5.10;;
1106;SDS011;540;49.448;8.612;2023-11-21T09:18:34;6.55;;;4.32;;
1106;SDS011;540;49.448;8.612;2023-11-21T09:21:03;21.27;;;7.07;;
1106;SDS011;540;49.448;8.612;2023-11-21T09:23:34;17.35;;;6.97;;
1106;SDS011;540;49.448;8.612;2023-11-21T09:26:02;38.78;;;9.63;;
1106;SDS011;540;49.448;8.612;2023-11-21T09:28:33;3.97;;;3.28;;
1106;SDS011;540;49.448;8.612;2023-11-21T09:31:04;4.70;;;2.72;;
1106;SDS011;540;49.448;8.612;2023-11-21T09:33:35;6.28;;;2.30;;
1106;SDS011;540;49.448;8.612;2023-11-21T09:36:05;5.80;;;2.53;;
1106;SDS011;540;49.448;8.612;2023-11-21T09:38:38;22.73;;;4.80;;
1106;SDS011;540;49.448;8.612;2023-11-21T09:41:08;9.68;;;2.65;;
1106;SDS011;540;49.448;8.612;2023-11-21T09:43:45;2.85;;;1.63;;
1106;SDS011;540;49.448;8.612;2023-11-21T09:46:14;2.35;;;1.88;;
1106;SDS011;540;49.448;8.612;2023-11-21T09:48:48;3.13;;;1.90;;
1106;SDS011;540;49.448;8.612;2023-11-21T09:51:19;2.45;;;1.83;;
1106;SDS011;540;49.448;8.612;2023-11-21T09:53:49;2.05;;;1.85;;
1106;SDS011;540;49.448;8.612;2023-11-21T09:56:21;4.00;;;2.45;;
1106;SDS011;540;49.448;8.612;2023-11-21T09:58:52;4.38;;;2.85;;
1106;SDS011;540;49.448;8.612;2023-11-21T10:01:23;5.53;;;2.85;;
1106;SDS011;540;49.448;8.612;2023-11-21T10:03:54;4.30;;;2.40;;
1106;SDS011;540;49.448;8.612;2023-11-21T10:06:22;5.65;;;2.60;;
1106;SDS011;540;49.448;8.612;2023-11-21T10:08:53;5.22;;;3.53;;
1106;SDS011;540;49.448;8.612;2023-11-21T10:11:22;3.47;;;2.90;;
1106;SDS011;540;49.448;8.612;2023-11-21T10:13:54;3.53;;;3.22;;
1106;SDS011;540;49.448;8.612;2023-11-21T10:16:24;4.80;;;3.60;;
1106;SDS011;540;49.448;8.612;2023-11-21T10:18:53;3.92;;;3.30;;
1106;SDS011;540;49.448;8.612;2023-11-21T10:21:36;4.68;;;4.00;;
1106;SDS011;540;49.448;8.612;2023-11-21T10:24:05;7.82;;;4.20;;
1106;SDS011;540;49.448;8.612;2023-11-21T10:26:34;6.78;;;4.60;;
1106;SDS011;540;49.448;8.612;2023-11-21T10:29:17;6.20;;;4.85;;
1106;SDS011;540;49.448;8.612;2023-11-21T10:31:45;6.35;;;4.85;;
1106;SDS011;540;49.448;8.612;2023-11-21T10:34:16;6.47;;;4.93;;
1106;SDS011;540;49.448;8.612;2023-11-21T10:36:48;7.20;;;5.28;;
1106;SDS011;540;49.448;8.612;2023-11-21T10:39:17;6.35;;;5.03;;
1106;SDS011;540;49.448;8.612;2023-11-21T10:41:46;8.30;;;4.95;;
1106;SDS011;540;49.448;8.612;2023-11-21T10:44:16;5.72;;;5.07;;
1106;SDS011;540;49.448;8.612;2023-11-21T10:46:51;6.83;;;5.17;;
1106;SDS011;540;49.448;8.612;2023-11-21T10:49:22;8.20;;;5.28;;
1106;SDS011;540;49.448;8.612;2023-11-21T10:51:52;6.28;;;4.88;;
1106;SDS011;540;49.448;8.612;2023-11-21T10:54:21;7.28;;;5.20;;
1106;SDS011;540;49.448;8.612;2023-11-21T10:56:50;7.63;;;5.47;;
1106;SDS011;540;49.448;8.612;2023-11-21T10:59:29;7.07;;;5.22;;
1106;SDS011;540;49.448;8.612;2023-11-21T11:02:01;8.50;;;5.57;;
1106;SDS011;540;49.448;8.612;2023-11-21T11:04:35;5.00;;;4.35;;
1106;SDS011;540;49.448;8.612;2023-11-21T11:07:04;7.65;;;5.82;;
1106;SDS011;540;49.448;8.612;2023-11-21T11:09:38;9.88;;;5.68;;
1106;SDS011;540;49.448;8.612;2023-11-21T11:12:06;7.97;;;6.28;;
1106;SDS011;540;49.448;8.612;2023-11-21T11:14:38;7.32;;;5.82;;
1106;SDS011;540;49.448;8.612;2023-11-21T11:17:10;7.25;;;5.20;;
1106;SDS011;540;49.448;8.612;2023-11-21T11:19:38;7.75;;;5.10;;
1106;SDS011;540;49.448;8.612;2023-11-21T11:22:08;5.95;;;4.90;;
1106;SDS011;540;49.448;8.612;2023-11-21T11:24:53;9.18;;;5.85;;
1106;SDS011;540;49.448;8.612;2023-11-21T11:27:44;7.57;;;5.65;;
1106;SDS011;540;49.448;8.612;2023-11-21T11:30:21;6.97;;;5.57;;
1106;SDS011;540;49.448;8.612;2023-11-21T11:33:07;7.80;;;5.30;;
1106;SDS011;540;49.448;8.612;2023-11-21T11:35:43;8.35;;;5.60;;
1106;SDS011;540;49.448;8.612;2023-11-21T11:38:20;8.32;;;5.68;;
1106;SDS011;540;49.448;8.612;2023-11-21T11:40:52;8.48;;;5.60;;
1106;SDS011;540;49.448;8.612;2023-11-21T11:43:27;7.32;;;5.70;;
1106;SDS011;540;49.448;8.612;2023-11-21T11:48:26;8.50;;;6.28;;
1106;SDS011;540;49.448;8.612;2023-11-21T11:51:00;8.13;;;5.65;;
1106;SDS011;540;49.448;8.612;2023-11-21T11:53:35;5.72;;;4.85;;
1106;SDS011;540;49.448;8.612;2023-11-21T11:56:19;6.32;;;3.95;;
1106;SDS011;540;49.448;8.612;2023-11-21T11:58:52;8.30;;;5.05;;
1106;SDS011;540;49.448;8.612;2023-11-21T12:01:24;7.20;;;4.30;;
1106;SDS011;540;49.448;8.612;2023-11-21T12:07:00;7.43;;;5.00;;
1106;SDS011;540;49.448;8.612;2023-11-21T12:09:30;8.15;;;4.47;;
1106;SDS011;540;49.448;8.612;2023-11-21T12:12:00;11.23;;;4.32;;
1106;SDS011;540;49.448;8.612;2023-11-21T12:14:31;5.97;;;4.30;;
1106;SDS011;540;49.448;8.612;2023-11-21T12:17:00;6.43;;;4.32;;
1106;SDS011;540;49.448;8.612;2023-11-21T12:19:31;5.90;;;4.30;;
1106;SDS011;540;49.448;8.612;2023-11-21T12:21:59;5.72;;;2.88;;
1106;SDS011;540;49.448;8.612;2023-11-21T12:24:27;5.20;;;3.47;;
1106;SDS011;540;49.448;8.612;2023-11-21T12:26:55;4.63;;;3.17;;
1106;SDS011;540;49.448;8.612;2023-11-21T12:29:23;4.78;;;2.90;;
1106;SDS011;540;49.448;8.612;2023-11-21T12:31:51;7.05;;;4.30;;
1106;SDS011;540;49.448;8.612;2023-11-21T12:34:21;4.03;;;3.10;;
1106;SDS011;540;49.448;8.612;2023-11-21T12:36:50;3.92;;;2.90;;
1106;SDS011;540;49.448;8.612;2023-11-21T12:39:20;5.30;;;3.85;;
1106;SDS011;540;49.448;8.612;2023-11-21T12:41:49;8.30;;;4.80;;
1106;SDS011;540;49.448;8.612;2023-11-21T12:44:17;5.38;;;3.60;;
1106;SDS011;540;49.448;8.612;2023-11-21T12:46:45;4.82;;;3.22;;
1106;SDS011;540;49.448;8.612;2023-11-21T12:49:13;5.40;;;3.20;;
1106;SDS011;540;49.448;8.612;2023-11-21T12:51:46;4.97;;;3.50;;
1106;SDS011;540;49.448;8.612;2023-11-21T12:54:14;4.63;;;3.00;;
1106;SDS011;540;49.448;8.612;2023-11-21T12:56:44;4.45;;;3.33;;
1106;SDS011;540;49.448;8.612;2023-11-21T12:59:15;4.45;;;3.20;;
1106;SDS011;540;49.448;8.612;2023-11-21T13:01:44;6.88;;;3.78;;
1106;SDS011;540;49.448;8.612;2023-11-21T13:04:13;5.95;;;4.35;;
1106;SDS011;540;49.448;8.612;2023-11-21T13:06:40;6.60;;;3.97;;
1106;SDS011;540;49.448;8.612;2023-11-21T13:09:10;5.80;;;3.45;;
1106;SDS011;540;49.448;8.612;2023-11-21T13:11:40;7.55;;;3.38;;
1106;SDS011;540;49.448;8.612;2023-11-21T13:14:08;4.70;;;3.38;;
1106;SDS011;540;49.448;8.612;2023-11-21T13:16:39;8.35;;;3.00;;
1106;SDS011;540;49.448;8.612;2023-11-21T13:19:12;4.10;;;3.05;;
1106;SDS011;540;49.448;8.612;2023-11-21T13:21:40;4.95;;;2.40;;
1106;SDS011;540;49.448;8.612;2023-11-21T13:24:09;4.65;;;2.75;;
1106;SDS011;540;49.448;8.612;2023-11-21T13:26:37;5.72;;;2.50;;
1106;SDS011;540;49.448;8.612;2023-11-21T13:29:07;3.40;;;2.35;;
1106;SDS011;540;49.448;8.612;2023-11-21T13:31:35;4.28;;;2.00;;
1106;SDS011;540;49.448;8.612;2023-11-21T13:34:04;4.15;;;2.00;;
1106;SDS011;540;49.448;8.612;2023-11-21T13:36:34;5.07;;;2.42;;
1106;SDS011;540;49.448;8.612;2023-11-21T13:39:02;3.00;;;1.80;;
1106;SDS011;540;49.448;8.612;2023-11-21T13:41:35;3.58;;;2.60;;
1106;SDS011;540;49.448;8.612;2023-11-21T13:44:05;5.85;;;2.90;;
1106;SDS011;540;49.448;8.612;2023-11-21T13:46:42;4.55;;;2.03;;
1106;SDS011;540;49.448;8.612;2023-11-21T13:49:12;2.83;;;1.88;;
1106;SDS011;540;49.448;8.612;2023-11-21T13:51:41;6.72;;;2.88;;
1106;SDS011;540;49.448;8.612;2023-11-21T13:54:11;6.25;;;2.80;;
1106;SDS011;540;49.448;8.612;2023-11-21T13:56:42;4.50;;;2.38;;
1106;SDS011;540;49.448;8.612;2023-11-21T13:59:11;4.03;;;2.53;;
1106;SDS011;540;49.448;8.612;2023-11-21T14:04:23;6.40;;;3.08;;
1106;SDS011;540;49.448;8.612;2023-11-21T14:07:20;12.32;;;4.78;;
1106;SDS011;540;49.448;8.612;2023-11-21T14:09:56;5.43;;;3.42;;
1106;SDS011;540;49.448;8.612;2023-11-21T14:12:26;8.68;;;4.00;;
1106;SDS011;540;49.448;8.612;2023-11-21T14:14:54;6.63;;;4.40;;
1106;SDS011;540;49.448;8.612;2023-11-21T14:17:22;10.70;;;3.40;;
1106;SDS011;540;49.448;8.612;2023-11-21T14:19:53;9.80;;;4.28;;
1106;SDS011;540;49.448;8.612;2023-11-21T14:22:22;10.30;;;3.05;;
1106;SDS011;540;49.448;8.612;2023-11-21T14:24:52;5.93;;;2.90;;
1106;SDS011;540;49.448;8.612;2023-11-21T14:27:22;5.60;;;3.55;;
1106;SDS011;540;49.448;8.612;2023-11-21T14:29:51;4.38;;;2.70;;
1106;SDS011;540;49.448;8.612;2023-11-21T14:32:19;5.47;;;2.97;;
1106;SDS011;540;49.448;8.612;2023-11-21T14:34:48;4.75;;;2.65;;
1106;SDS011;540;49.448;8.612;2023-11-21T14:37:16;15.75;;;10.18;;
1106;SDS011;540;49.448;8.612;2023-11-21T14:39:44;25.05;;;15.40;;
1106;SDS011;540;49.448;8.612;2023-11-21T14:42:15;11.98;;;5.05;;
1106;SDS011;540;49.448;8.612;2023-11-21T14:44:52;7.10;;;3.35;;
1106;SDS011;540;49.448;8.612;2023-11-21T14:47:23;9.35;;;2.60;;
1106;SDS011;540;49.448;8.612;2023-11-21T14:49:53;6.53;;;2.67;;
1106;SDS011;540;49.448;8.612;2023-11-21T14:52:23;7.30;;;2.83;;
1106;SDS011;540;49.448;8.612;2023-11-21T14:55:01;7.97;;;2.97;;
1106;SDS011;540;49.448;8.612;2023-11-21T14:57:53;6.07;;;2.67;;
1106;SDS011;540;49.448;8.612;2023-11-21T15:00:21;6.88;;;3.13;;
1106;SDS011;540;49.448;8.612;2023-11-21T15:03:10;6.65;;;3.40;;
1106;SDS011;540;49.448;8.612;2023-11-21T15:05:50;6.90;;;2.80;;
1106;SDS011;540;49.448;8.612;2023-11-21T15:08:17;7.70;;;3.40;;
1106;SDS011;540;49.448;8.612;2023-11-21T15:10:52;5.28;;;3.58;;
1106;SDS011;540;49.448;8.612;2023-11-21T15:13:21;10.38;;;3.67;;
1106;SDS011;540;49.448;8.612;2023-11-21T15:15:51;11.45;;;3.55;;
1106;SDS011;540;49.448;8.612;2023-11-21T15:18:20;8.98;;;3.47;;
1106;SDS011;540;49.448;8.612;2023-11-21T15:20:50;10.27;;;2.88;;
1106;SDS011;540;49.448;8.612;2023-11-21T15:23:18;9.75;;;5.18;;
1106;SDS011;540;49.448;8.612;2023-11-21T15:25:46;10.98;;;6.80;;
1106;SDS011;540;49.448;8.612;2023-11-21T15:28:14;21.25;;;12.93;;
1106;SDS011;540;49.448;8.612;2023-11-21T15:30:43;13.77;;;7.65;;
1106;SDS011;540;49.448;8.612;2023-11-21T15:33:15;6.05;;;3.47;;
1106;SDS011;540;49.448;8.612;2023-11-21T15:35:43;6.10;;;3.58;;
1106;SDS011;540;49.448;8.612;2023-11-21T15:38:11;6.20;;;3.55;;
1106;SDS011;540;49.448;8.612;2023-11-21T15:40:40;9.02;;;3.50;;
1106;SDS011;540;49.448;8.612;2023-11-21T15:43:09;9.55;;;3.78;;
1106;SDS011;540;49.448;8.612;2023-11-21T15:45:37;11.85;;;4.35;;
1106;SDS011;540;49.448;8.612;2023-11-21T15:48:05;7.40;;;3.72;;
1106;SDS011;540;49.448;8.612;2023-11-21T15:50:36;9.65;;;4.57;;